sensor_id;sensor_type;location;lat;lon;timestamp;P1;durP1;ratioP1;P2;durP2;ratioP2
30133;SDS011;16946;49.984;10.672;2023-09-18T00:00:07;6.90;;;5.03;;
30133;SDS011;16946;49.984;10.672;2023-09-18T00:00:42;6.63;;;4.90;;
30133;SDS011;16946;49.984;10.672;2023-09-18T00:01:16;5.65;;;4.80;;
30133;SDS011;16946;49.984;10.672;2023-09-18T00:01:49;7.72;;;4.95;;
30133;SDS011;16946;49.984;10.672;2023-09-18T00:02:20;5.47;;;4.70;;
30133;SDS011;16946;49.984;10.672;2023-09-18T00:02:50;5.60;;;5.10;;
30133;SDS011;16946;49.984;10.672;2023-09-18T00:03:21;8.27;;;5.03;;
30133;SDS011;16946;49.984;10.672;2023-09-18T00:03:54;5.63;;;5.13;;
30133;SDS011;16946;49.984;10.672;2023-09-18T00:04:24;5.40;;;4.60;;
30133;SDS011;16946;49.984;10.672;2023-09-18T00:04:55;5.33;;;4.83;;
30133;SDS011;16946;49.984;10.672;2023-09-18T00:05:25;5.13;;;4.67;;
30133;SDS011;16946;49.984;10.672;2023-09-18T00:05:57;5.63;;;4.85;;
30133;SDS011;16946;49.984;10.672;2023-09-18T00:06:28;5.07;;;4.53;;
30133;SDS011;16946;49.984;10.672;2023-09-18T00:07:00;8.75;;;5.28;;
30133;SDS011;16946;49.984;10.672;2023-09-18T00:07:30;6.63;;;5.03;;
30133;SDS011;16946;49.984;10.672;2023-09-18T00:08:01;7.87;;;5.47;;
30133;SDS011;16946;49.984;10.672;2023-09-18T00:08:34;6.20;;;4.82;;
30133;SDS011;16946;49.984;10.672;2023-09-18T00:09:05;6.17;;;5.43;;
30133;SDS011;16946;49.984;10.672;2023-09-18T00:09:41;6.57;;;5.07;;
30133;SDS011;16946;49.984;10.672;2023-09-18T00:10:11;6.17;;;5.53;;
30133;SDS011;16946;49.984;10.672;2023-09-18T00:10:46;6.13;;;5.28;;
30133;SDS011;16946;49.984;10.672;2023-09-18T00:11:19;6.07;;;5.47;;
30133;SDS011;16946;49.984;10.672;2023-09-18T00:11:49;6.40;;;5.23;;
30133;SDS011;16946;49.984;10.672;2023-09-18T00:12:20;5.30;;;4.80;;
30133;SDS011;16946;49.984;10.672;2023-09-18T00:12:50;6.10;;;5.10;;
30133;SDS011;16946;49.984;10.672;2023-09-18T00:13:21;6.10;;;5.50;;
30133;SDS011;16946;49.984;10.672;2023-09-18T00:13:52;7.38;;;5.22;;
30133;SDS011;16946;49.984;10.672;2023-09-18T00:14:23;7.10;;;5.63;;
30133;SDS011;16946;49.984;10.672;2023-09-18T00:14:53;6.40;;;5.07;;
30133;SDS011;16946;49.984;10.672;2023-09-18T00:15:24;6.10;;;5.50;;
30133;SDS011;16946;49.984;10.672;2023-09-18T00:15:55;5.97;;;5.03;;
30133;SDS011;16946;49.984;10.672;2023-09-18T00:16:25;5.70;;;5.20;;
30133;SDS011;16946;49.984;10.672;2023-09-18T00:16:57;5.68;;;5.13;;
30133;SDS011;16946;49.984;10.672;2023-09-18T00:17:27;6.07;;;5.50;;
30133;SDS011;16946;49.984;10.672;2023-09-18T00:17:58;5.60;;;5.10;;
30133;SDS011;16946;49.984;10.672;2023-09-18T00:18:28;7.63;;;5.50;;
30133;SDS011;16946;49.984;10.672;2023-09-18T00:18:59;6.40;;;5.13;;
30133;SDS011;16946;49.984;10.672;2023-09-18T00:19:29;7.00;;;6.07;;
30133;SDS011;16946;49.984;10.672;2023-09-18T00:20:02;6.68;;;5.50;;
30133;SDS011;16946;49.984;10.672;2023-09-18T00:20:36;6.45;;;5.80;;
30133;SDS011;16946;49.984;10.672;2023-09-18T00:21:07;7.63;;;5.27;;
30133;SDS011;16946;49.984;10.672;2023-09-18T00:21:42;7.85;;;5.63;;
30133;SDS011;16946;49.984;10.672;2023-09-18T00:22:13;8.43;;;5.10;;
30133;SDS011;16946;49.984;10.672;2023-09-18T00:22:44;5.80;;;4.67;;
30133;SDS011;16946;49.984;10.672;2023-09-18T00:23:14;6.13;;;5.43;;
30133;SDS011;16946;49.984;10.672;2023-09-18T00:23:45;6.57;;;5.88;;
30133;SDS011;16946;49.984;10.672;2023-09-18T00:24:16;7.40;;;5.17;;
30133;SDS011;16946;49.984;10.672;2023-09-18T00:24:47;6.10;;;5.53;;
30133;SDS011;16946;49.984;10.672;2023-09-18T00:25:18;5.73;;;5.07;;
30133;SDS011;16946;49.984;10.672;2023-09-18T00:25:48;5.27;;;4.77;;
30133;SDS011;16946;49.984;10.672;2023-09-18T00:26:19;6.97;;;5.80;;
30133;SDS011;16946;49.984;10.672;2023-09-18T00:26:49;5.87;;;5.27;;
30133;SDS011;16946;49.984;10.672;2023-09-18T00:27:22;6.15;;;4.72;;
30133;SDS011;16946;49.984;10.672;2023-09-18T00:27:53;5.93;;;4.67;;
30133;SDS011;16946;49.984;10.672;2023-09-18T00:28:24;5.00;;;4.60;;
30133;SDS011;16946;49.984;10.672;2023-09-18T00:28:54;5.23;;;4.73;;
30133;SDS011;16946;49.984;10.672;2023-09-18T00:29:25;8.00;;;4.40;;
30133;SDS011;16946;49.984;10.672;2023-09-18T00:29:55;6.73;;;4.57;;
30133;SDS011;16946;49.984;10.672;2023-09-18T00:30:26;5.50;;;5.00;;
30133;SDS011;16946;49.984;10.672;2023-09-18T00:30:56;6.30;;;4.17;;
30133;SDS011;16946;49.984;10.672;2023-09-18T00:31:27;5.38;;;4.43;;
30133;SDS011;16946;49.984;10.672;2023-09-18T00:31:58;4.60;;;4.20;;
30133;SDS011;16946;49.984;10.672;2023-09-18T00:32:28;6.57;;;4.77;;
30133;SDS011;16946;49.984;10.672;2023-09-18T00:32:59;5.90;;;4.40;;
30133;SDS011;16946;49.984;10.672;2023-09-18T00:33:30;8.47;;;5.03;;
30133;SDS011;16946;49.984;10.672;2023-09-18T00:34:01;5.40;;;4.38;;
30133;SDS011;16946;49.984;10.672;2023-09-18T00:34:31;7.93;;;5.17;;
30133;SDS011;16946;49.984;10.672;2023-09-18T00:35:02;5.47;;;4.97;;
30133;SDS011;16946;49.984;10.672;2023-09-18T00:35:33;5.50;;;4.90;;
30133;SDS011;16946;49.984;10.672;2023-09-18T00:36:03;5.13;;;4.63;;
30133;SDS011;16946;49.984;10.672;2023-09-18T00:36:34;6.00;;;5.40;;
30133;SDS011;16946;49.984;10.672;2023-09-18T00:37:04;5.53;;;4.77;;
30133;SDS011;16946;49.984;10.672;2023-09-18T00:37:35;5.83;;;5.23;;
30133;SDS011;16946;49.984;10.672;2023-09-18T00:38:07;5.30;;;4.80;;
30133;SDS011;16946;49.984;10.672;2023-09-18T00:38:37;9.70;;;4.83;;
30133;SDS011;16946;49.984;10.672;2023-09-18T00:39:08;6.23;;;5.00;;
30133;SDS011;16946;49.984;10.672;2023-09-18T00:39:38;5.33;;;4.93;;
30133;SDS011;16946;49.984;10.672;2023-09-18T00:40:09;5.87;;;4.60;;
30133;SDS011;16946;49.984;10.672;2023-09-18T00:40:41;5.38;;;4.80;;
30133;SDS011;16946;49.984;10.672;2023-09-18T00:41:11;5.83;;;4.67;;
30133;SDS011;16946;49.984;10.672;2023-09-18T00:41:42;7.57;;;5.23;;
30133;SDS011;16946;49.984;10.672;2023-09-18T00:42:13;7.05;;;4.82;;
30133;SDS011;16946;49.984;10.672;2023-09-18T00:42:45;4.45;;;4.05;;
30133;SDS011;16946;49.984;10.672;2023-09-18T00:43:16;5.00;;;4.53;;
30133;SDS011;16946;49.984;10.672;2023-09-18T00:43:47;5.38;;;4.75;;
30133;SDS011;16946;49.984;10.672;2023-09-18T00:44:18;5.63;;;4.80;;
30133;SDS011;16946;49.984;10.672;2023-09-18T00:44:48;5.87;;;5.10;;
30133;SDS011;16946;49.984;10.672;2023-09-18T00:45:20;5.85;;;5.25;;
30133;SDS011;16946;49.984;10.672;2023-09-18T00:45:51;5.30;;;4.63;;
30133;SDS011;16946;49.984;10.672;2023-09-18T00:46:22;5.20;;;4.80;;
30133;SDS011;16946;49.984;10.672;2023-09-18T00:46:53;5.53;;;4.95;;
30133;SDS011;16946;49.984;10.672;2023-09-18T00:47:25;6.03;;;4.75;;
30133;SDS011;16946;49.984;10.672;2023-09-18T00:47:56;6.50;;;5.23;;
30133;SDS011;16946;49.984;10.672;2023-09-18T00:48:26;5.17;;;4.67;;
30133;SDS011;16946;49.984;10.672;2023-09-18T00:48:58;6.25;;;4.65;;
30133;SDS011;16946;49.984;10.672;2023-09-18T00:49:29;5.40;;;4.90;;
30133;SDS011;16946;49.984;10.672;2023-09-18T00:50:00;5.28;;;4.78;;
30133;SDS011;16946;49.984;10.672;2023-09-18T00:50:31;5.90;;;5.27;;
30133;SDS011;16946;49.984;10.672;2023-09-18T00:51:02;9.07;;;5.20;;
30133;SDS011;16946;49.984;10.672;2023-09-18T00:51:33;7.93;;;5.17;;
30133;SDS011;16946;49.984;10.672;2023-09-18T00:52:03;5.63;;;5.13;;
30133;SDS011;16946;49.984;10.672;2023-09-18T00:52:35;6.75;;;5.35;;
30133;SDS011;16946;49.984;10.672;2023-09-18T00:53:07;6.63;;;5.10;;
30133;SDS011;16946;49.984;10.672;2023-09-18T00:53:41;4.82;;;4.20;;
30133;SDS011;16946;49.984;10.672;2023-09-18T00:54:15;4.72;;;4.32;;
30133;SDS011;16946;49.984;10.672;2023-09-18T00:54:48;5.97;;;4.63;;
30133;SDS011;16946;49.984;10.672;2023-09-18T00:55:19;4.70;;;4.27;;
30133;SDS011;16946;49.984;10.672;2023-09-18T00:55:53;6.23;;;5.27;;
30133;SDS011;16946;49.984;10.672;2023-09-18T00:56:26;7.80;;;4.88;;
30133;SDS011;16946;49.984;10.672;2023-09-18T00:56:57;4.87;;;4.37;;
30133;SDS011;16946;49.984;10.672;2023-09-18T00:57:28;8.67;;;5.23;;
30133;SDS011;16946;49.984;10.672;2023-09-18T00:57:59;5.82;;;5.07;;
30133;SDS011;16946;49.984;10.672;2023-09-18T00:58:29;6.03;;;4.87;;
30133;SDS011;16946;49.984;10.672;2023-09-18T00:59:00;5.20;;;4.70;;
30133;SDS011;16946;49.984;10.672;2023-09-18T00:59:33;4.80;;;4.32;;
30133;SDS011;16946;49.984;10.672;2023-09-18T01:00:04;5.27;;;4.47;;
30133;SDS011;16946;49.984;10.672;2023-09-18T01:00:35;5.82;;;5.30;;
30133;SDS011;16946;49.984;10.672;2023-09-18T01:01:06;7.27;;;5.00;;
30133;SDS011;16946;49.984;10.672;2023-09-18T01:01:39;5.97;;;5.15;;
30133;SDS011;16946;49.984;10.672;2023-09-18T01:02:11;6.65;;;5.15;;
30133;SDS011;16946;49.984;10.672;2023-09-18T01:02:43;4.88;;;4.43;;
30133;SDS011;16946;49.984;10.672;2023-09-18T01:03:15;6.55;;;5.15;;
30133;SDS011;16946;49.984;10.672;2023-09-18T01:03:49;5.50;;;4.75;;
30133;SDS011;16946;49.984;10.672;2023-09-18T01:04:21;6.22;;;4.90;;
30133;SDS011;16946;49.984;10.672;2023-09-18T01:04:52;5.85;;;4.68;;
30133;SDS011;16946;49.984;10.672;2023-09-18T01:05:23;8.83;;;4.80;;
30133;SDS011;16946;49.984;10.672;2023-09-18T01:05:54;8.37;;;4.53;;
30133;SDS011;16946;49.984;10.672;2023-09-18T01:06:25;5.03;;;4.53;;
30133;SDS011;16946;49.984;10.672;2023-09-18T01:07:00;4.90;;;4.40;;
30133;SDS011;16946;49.984;10.672;2023-09-18T01:07:33;5.25;;;4.60;;
30133;SDS011;16946;49.984;10.672;2023-09-18T01:08:04;5.33;;;4.83;;
30133;SDS011;16946;49.984;10.672;2023-09-18T01:08:35;5.40;;;4.87;;
30133;SDS011;16946;49.984;10.672;2023-09-18T01:09:06;5.00;;;4.28;;
30133;SDS011;16946;49.984;10.672;2023-09-18T01:09:42;5.15;;;4.50;;
30133;SDS011;16946;49.984;10.672;2023-09-18T01:10:13;6.60;;;4.28;;
30133;SDS011;16946;49.984;10.672;2023-09-18T01:11:00;5.03;;;4.35;;
30133;SDS011;16946;49.984;10.672;2023-09-18T01:13:11;5.07;;;4.40;;
30133;SDS011;16946;49.984;10.672;2023-09-18T01:13:51;5.20;;;4.60;;
30133;SDS011;16946;49.984;10.672;2023-09-18T01:14:37;5.53;;;4.00;;
30133;SDS011;16946;49.984;10.672;2023-09-18T01:15:30;6.28;;;4.03;;
30133;SDS011;16946;49.984;10.672;2023-09-18T01:16:08;5.55;;;5.05;;
30133;SDS011;16946;49.984;10.672;2023-09-18T01:16:50;5.40;;;4.68;;
30133;SDS011;16946;49.984;10.672;2023-09-18T01:17:24;8.07;;;4.88;;
30133;SDS011;16946;49.984;10.672;2023-09-18T01:17:56;4.88;;;4.40;;
30133;SDS011;16946;49.984;10.672;2023-09-18T01:18:26;5.27;;;4.77;;
30133;SDS011;16946;49.984;10.672;2023-09-18T01:18:57;6.10;;;4.97;;
30133;SDS011;16946;49.984;10.672;2023-09-18T01:20:11;7.25;;;4.85;;
30133;SDS011;16946;49.984;10.672;2023-09-18T01:20:43;6.30;;;4.93;;
30133;SDS011;16946;49.984;10.672;2023-09-18T01:21:14;4.28;;;3.85;;
30133;SDS011;16946;49.984;10.672;2023-09-18T01:21:45;5.33;;;4.10;;
30133;SDS011;16946;49.984;10.672;2023-09-18T01:22:17;5.00;;;4.50;;
30133;SDS011;16946;49.984;10.672;2023-09-18T01:22:48;5.38;;;4.32;;
30133;SDS011;16946;49.984;10.672;2023-09-18T01:23:19;4.97;;;4.38;;
30133;SDS011;16946;49.984;10.672;2023-09-18T01:23:50;6.03;;;4.83;;
30133;SDS011;16946;49.984;10.672;2023-09-18T01:24:21;6.30;;;5.15;;
30133;SDS011;16946;49.984;10.672;2023-09-18T01:24:52;5.13;;;4.67;;
30133;SDS011;16946;49.984;10.672;2023-09-18T01:25:22;5.33;;;4.47;;
30133;SDS011;16946;49.984;10.672;2023-09-18T01:25:53;7.40;;;4.73;;
30133;SDS011;16946;49.984;10.672;2023-09-18T01:26:23;5.70;;;4.93;;
30133;SDS011;16946;49.984;10.672;2023-09-18T01:26:54;4.47;;;4.07;;
30133;SDS011;16946;49.984;10.672;2023-09-18T01:27:24;4.60;;;4.20;;
30133;SDS011;16946;49.984;10.672;2023-09-18T01:27:55;6.43;;;4.50;;
30133;SDS011;16946;49.984;10.672;2023-09-18T01:28:25;5.30;;;4.80;;
30133;SDS011;16946;49.984;10.672;2023-09-18T01:28:56;4.73;;;4.33;;
30133;SDS011;16946;49.984;10.672;2023-09-18T01:29:26;5.63;;;5.10;;
30133;SDS011;16946;49.984;10.672;2023-09-18T01:29:57;5.03;;;4.53;;
30133;SDS011;16946;49.984;10.672;2023-09-18T01:30:27;5.80;;;5.10;;
30133;SDS011;16946;49.984;10.672;2023-09-18T01:30:58;6.13;;;5.13;;
30133;SDS011;16946;49.984;10.672;2023-09-18T01:31:28;6.73;;;5.63;;
30133;SDS011;16946;49.984;10.672;2023-09-18T01:31:59;5.97;;;4.90;;
30133;SDS011;16946;49.984;10.672;2023-09-18T01:32:30;8.57;;;5.60;;
30133;SDS011;16946;49.984;10.672;2023-09-18T01:33:02;6.10;;;5.50;;
30133;SDS011;16946;49.984;10.672;2023-09-18T01:33:34;7.07;;;5.50;;
30133;SDS011;16946;49.984;10.672;2023-09-18T01:34:06;6.10;;;5.50;;
30133;SDS011;16946;49.984;10.672;2023-09-18T01:34:38;6.27;;;5.67;;
30133;SDS011;16946;49.984;10.672;2023-09-18T01:35:16;6.63;;;6.03;;
30133;SDS011;16946;49.984;10.672;2023-09-18T01:35:46;6.33;;;5.70;;
30133;SDS011;16946;49.984;10.672;2023-09-18T01:36:18;7.00;;;6.00;;
30133;SDS011;16946;49.984;10.672;2023-09-18T01:36:49;6.63;;;5.95;;
30133;SDS011;16946;49.984;10.672;2023-09-18T01:37:25;6.10;;;5.55;;
30133;SDS011;16946;49.984;10.672;2023-09-18T01:37:57;8.80;;;6.10;;
30133;SDS011;16946;49.984;10.672;2023-09-18T01:38:29;7.18;;;5.95;;
30133;SDS011;16946;49.984;10.672;2023-09-18T01:39:01;7.63;;;6.07;;
30133;SDS011;16946;49.984;10.672;2023-09-18T01:39:32;6.50;;;5.70;;
30133;SDS011;16946;49.984;10.672;2023-09-18T01:40:03;6.72;;;6.13;;
30133;SDS011;16946;49.984;10.672;2023-09-18T01:40:36;7.15;;;6.47;;
30133;SDS011;16946;49.984;10.672;2023-09-18T01:41:07;7.32;;;6.28;;
30133;SDS011;16946;49.984;10.672;2023-09-18T01:41:39;7.97;;;5.45;;
30133;SDS011;16946;49.984;10.672;2023-09-18T01:42:10;6.63;;;6.03;;
30133;SDS011;16946;49.984;10.672;2023-09-18T01:42:41;6.63;;;5.30;;
30133;SDS011;16946;49.984;10.672;2023-09-18T01:43:13;6.75;;;5.40;;
30133;SDS011;16946;49.984;10.672;2023-09-18T01:43:43;7.00;;;5.10;;
30133;SDS011;16946;49.984;10.672;2023-09-18T01:44:14;6.07;;;5.33;;
30133;SDS011;16946;49.984;10.672;2023-09-18T01:44:44;8.17;;;5.07;;
30133;SDS011;16946;49.984;10.672;2023-09-18T01:45:17;9.00;;;5.63;;
30133;SDS011;16946;49.984;10.672;2023-09-18T01:45:48;6.13;;;5.53;;
30133;SDS011;16946;49.984;10.672;2023-09-18T01:46:19;6.10;;;4.57;;
30133;SDS011;16946;49.984;10.672;2023-09-18T01:46:50;6.93;;;5.63;;
30133;SDS011;16946;49.984;10.672;2023-09-18T01:47:22;4.90;;;4.40;;
30133;SDS011;16946;49.984;10.672;2023-09-18T01:47:58;7.00;;;4.80;;
30133;SDS011;16946;49.984;10.672;2023-09-18T01:48:29;6.27;;;5.07;;
30133;SDS011;16946;49.984;10.672;2023-09-18T01:49:00;5.17;;;4.67;;
30133;SDS011;16946;49.984;10.672;2023-09-18T01:49:32;7.17;;;5.53;;
30133;SDS011;16946;49.984;10.672;2023-09-18T01:50:04;5.60;;;4.68;;
30133;SDS011;16946;49.984;10.672;2023-09-18T01:50:36;5.07;;;4.68;;
30133;SDS011;16946;49.984;10.672;2023-09-18T01:51:07;7.22;;;5.15;;
30133;SDS011;16946;49.984;10.672;2023-09-18T01:51:37;5.43;;;4.93;;
30133;SDS011;16946;49.984;10.672;2023-09-18T01:52:08;7.63;;;5.20;;
30133;SDS011;16946;49.984;10.672;2023-09-18T01:52:40;5.68;;;5.18;;
30133;SDS011;16946;49.984;10.672;2023-09-18T01:53:10;6.63;;;4.63;;
30133;SDS011;16946;49.984;10.672;2023-09-18T01:53:41;6.33;;;5.13;;
30133;SDS011;16946;49.984;10.672;2023-09-18T01:54:12;5.95;;;5.15;;
30133;SDS011;16946;49.984;10.672;2023-09-18T01:54:43;6.73;;;5.20;;
30133;SDS011;16946;49.984;10.672;2023-09-18T01:55:14;7.10;;;4.80;;
30133;SDS011;16946;49.984;10.672;2023-09-18T01:55:44;6.50;;;4.97;;
30133;SDS011;16946;49.984;10.672;2023-09-18T01:56:15;6.07;;;5.30;;
30133;SDS011;16946;49.984;10.672;2023-09-18T01:56:45;5.23;;;4.73;;
30133;SDS011;16946;49.984;10.672;2023-09-18T01:57:16;4.60;;;4.20;;
30133;SDS011;16946;49.984;10.672;2023-09-18T01:57:46;5.50;;;5.00;;
30133;SDS011;16946;49.984;10.672;2023-09-18T01:58:17;6.17;;;5.57;;
30133;SDS011;16946;49.984;10.672;2023-09-18T01:58:47;5.63;;;5.03;;
30133;SDS011;16946;49.984;10.672;2023-09-18T01:59:18;6.37;;;5.73;;
30133;SDS011;16946;49.984;10.672;2023-09-18T01:59:49;6.15;;;5.55;;
30133;SDS011;16946;49.984;10.672;2023-09-18T02:00:20;4.90;;;4.50;;
30133;SDS011;16946;49.984;10.672;2023-09-18T02:00:51;6.63;;;4.93;;
30133;SDS011;16946;49.984;10.672;2023-09-18T02:01:21;5.73;;;5.10;;
30133;SDS011;16946;49.984;10.672;2023-09-18T02:01:52;5.77;;;5.17;;
30133;SDS011;16946;49.984;10.672;2023-09-18T02:02:27;5.55;;;5.05;;
30133;SDS011;16946;49.984;10.672;2023-09-18T02:02:57;5.70;;;5.20;;
30133;SDS011;16946;49.984;10.672;2023-09-18T02:03:28;7.67;;;5.53;;
30133;SDS011;16946;49.984;10.672;2023-09-18T02:03:58;6.17;;;5.57;;
30133;SDS011;16946;49.984;10.672;2023-09-18T02:04:29;6.37;;;5.07;;
30133;SDS011;16946;49.984;10.672;2023-09-18T02:04:59;5.43;;;4.57;;
30133;SDS011;16946;49.984;10.672;2023-09-18T02:05:30;5.70;;;5.20;;
30133;SDS011;16946;49.984;10.672;2023-09-18T02:06:02;5.72;;;5.05;;
30133;SDS011;16946;49.984;10.672;2023-09-18T02:06:33;6.40;;;5.33;;
30133;SDS011;16946;49.984;10.672;2023-09-18T02:07:03;6.57;;;4.77;;
30133;SDS011;16946;49.984;10.672;2023-09-18T02:07:35;5.45;;;4.95;;
30133;SDS011;16946;49.984;10.672;2023-09-18T02:08:05;5.13;;;4.63;;
30133;SDS011;16946;49.984;10.672;2023-09-18T02:08:36;6.83;;;4.97;;
30133;SDS011;16946;49.984;10.672;2023-09-18T02:09:07;5.97;;;4.90;;
30133;SDS011;16946;49.984;10.672;2023-09-18T02:09:38;5.00;;;4.60;;
30133;SDS011;16946;49.984;10.672;2023-09-18T02:10:09;6.13;;;4.60;;
30133;SDS011;16946;49.984;10.672;2023-09-18T02:10:42;6.72;;;5.03;;
30133;SDS011;16946;49.984;10.672;2023-09-18T02:11:13;6.27;;;4.47;;
30133;SDS011;16946;49.984;10.672;2023-09-18T02:11:44;7.77;;;4.80;;
30133;SDS011;16946;49.984;10.672;2023-09-18T02:12:16;5.93;;;4.80;;
30133;SDS011;16946;49.984;10.672;2023-09-18T02:12:47;7.00;;;4.63;;
30133;SDS011;16946;49.984;10.672;2023-09-18T02:13:18;7.00;;;4.80;;
30133;SDS011;16946;49.984;10.672;2023-09-18T02:13:48;5.27;;;4.73;;
30133;SDS011;16946;49.984;10.672;2023-09-18T02:14:19;5.43;;;4.93;;
30133;SDS011;16946;49.984;10.672;2023-09-18T02:14:49;6.17;;;5.57;;
30133;SDS011;16946;49.984;10.672;2023-09-18T02:15:20;6.00;;;5.40;;
30133;SDS011;16946;49.984;10.672;2023-09-18T02:15:51;6.57;;;5.40;;
30133;SDS011;16946;49.984;10.672;2023-09-18T02:16:22;5.82;;;5.32;;
30133;SDS011;16946;49.984;10.672;2023-09-18T02:16:54;6.80;;;5.22;;
30133;SDS011;16946;49.984;10.672;2023-09-18T02:17:24;6.17;;;5.67;;
30133;SDS011;16946;49.984;10.672;2023-09-18T02:17:55;8.70;;;5.83;;
30133;SDS011;16946;49.984;10.672;2023-09-18T02:18:25;6.37;;;5.77;;
30133;SDS011;16946;49.984;10.672;2023-09-18T02:18:56;9.37;;;6.13;;
30133;SDS011;16946;49.984;10.672;2023-09-18T02:19:26;7.03;;;5.70;;
30133;SDS011;16946;49.984;10.672;2023-09-18T02:19:57;6.83;;;5.70;;
30133;SDS011;16946;49.984;10.672;2023-09-18T02:20:27;7.47;;;5.30;;
30133;SDS011;16946;49.984;10.672;2023-09-18T02:20:58;6.20;;;5.43;;
30133;SDS011;16946;49.984;10.672;2023-09-18T02:21:29;6.37;;;4.70;;
30133;SDS011;16946;49.984;10.672;2023-09-18T02:22:00;7.30;;;5.38;;
30133;SDS011;16946;49.984;10.672;2023-09-18T02:22:33;6.17;;;5.30;;
30133;SDS011;16946;49.984;10.672;2023-09-18T02:23:04;5.95;;;4.68;;
30133;SDS011;16946;49.984;10.672;2023-09-18T02:23:34;6.33;;;5.00;;
30133;SDS011;16946;49.984;10.672;2023-09-18T02:24:05;6.40;;;4.90;;
30133;SDS011;16946;49.984;10.672;2023-09-18T02:24:36;6.22;;;5.15;;
30133;SDS011;16946;49.984;10.672;2023-09-18T02:25:08;5.40;;;4.90;;
30133;SDS011;16946;49.984;10.672;2023-09-18T02:25:38;6.17;;;5.17;;
30133;SDS011;16946;49.984;10.672;2023-09-18T02:26:10;5.57;;;4.80;;
30133;SDS011;16946;49.984;10.672;2023-09-18T02:26:41;8.10;;;4.63;;
30133;SDS011;16946;49.984;10.672;2023-09-18T02:27:11;6.50;;;4.63;;
30133;SDS011;16946;49.984;10.672;2023-09-18T02:27:42;5.20;;;4.80;;
30133;SDS011;16946;49.984;10.672;2023-09-18T02:28:12;5.03;;;4.53;;
30133;SDS011;16946;49.984;10.672;2023-09-18T02:28:43;5.50;;;5.00;;
30133;SDS011;16946;49.984;10.672;2023-09-18T02:29:14;8.30;;;5.13;;
30133;SDS011;16946;49.984;10.672;2023-09-18T02:29:44;5.13;;;4.63;;
30133;SDS011;16946;49.984;10.672;2023-09-18T02:30:15;5.90;;;5.10;;
30133;SDS011;16946;49.984;10.672;2023-09-18T02:30:46;7.73;;;4.73;;
30133;SDS011;16946;49.984;10.672;2023-09-18T02:31:16;4.67;;;4.27;;
30133;SDS011;16946;49.984;10.672;2023-09-18T02:31:47;7.67;;;4.97;;
30133;SDS011;16946;49.984;10.672;2023-09-18T02:32:17;8.17;;;5.67;;
30133;SDS011;16946;49.984;10.672;2023-09-18T02:32:49;6.78;;;5.75;;
30133;SDS011;16946;49.984;10.672;2023-09-18T02:33:19;5.60;;;4.67;;
30133;SDS011;16946;49.984;10.672;2023-09-18T02:33:50;5.70;;;5.10;;
30133;SDS011;16946;49.984;10.672;2023-09-18T02:34:20;5.80;;;5.30;;
30133;SDS011;16946;49.984;10.672;2023-09-18T02:34:51;6.03;;;5.43;;
30133;SDS011;16946;49.984;10.672;2023-09-18T02:35:21;6.27;;;5.70;;
30133;SDS011;16946;49.984;10.672;2023-09-18T02:35:52;5.60;;;5.10;;
30133;SDS011;16946;49.984;10.672;2023-09-18T02:36:22;5.57;;;5.07;;
30133;SDS011;16946;49.984;10.672;2023-09-18T02:36:53;6.73;;;5.73;;
30133;SDS011;16946;49.984;10.672;2023-09-18T02:37:23;6.87;;;5.37;;
30133;SDS011;16946;49.984;10.672;2023-09-18T02:37:54;7.93;;;5.87;;
30133;SDS011;16946;49.984;10.672;2023-09-18T02:38:25;6.83;;;5.77;;
30133;SDS011;16946;49.984;10.672;2023-09-18T02:38:56;6.50;;;5.82;;
30133;SDS011;16946;49.984;10.672;2023-09-18T02:39:26;8.03;;;5.57;;
30133;SDS011;16946;49.984;10.672;2023-09-18T02:39:57;5.90;;;5.40;;
30133;SDS011;16946;49.984;10.672;2023-09-18T02:40:27;8.53;;;5.07;;
30133;SDS011;16946;49.984;10.672;2023-09-18T02:40:58;6.00;;;5.50;;
30133;SDS011;16946;49.984;10.672;2023-09-18T02:41:29;6.20;;;5.57;;
30133;SDS011;16946;49.984;10.672;2023-09-18T02:42:00;6.33;;;5.53;;
30133;SDS011;16946;49.984;10.672;2023-09-18T02:42:30;5.83;;;5.33;;
30133;SDS011;16946;49.984;10.672;2023-09-18T02:43:01;5.87;;;5.37;;
30133;SDS011;16946;49.984;10.672;2023-09-18T02:43:32;6.63;;;5.32;;
30133;SDS011;16946;49.984;10.672;2023-09-18T02:44:02;6.13;;;5.00;;
30133;SDS011;16946;49.984;10.672;2023-09-18T02:44:34;6.13;;;4.93;;
30133;SDS011;16946;49.984;10.672;2023-09-18T02:45:05;6.33;;;5.23;;
30133;SDS011;16946;49.984;10.672;2023-09-18T02:45:36;5.45;;;4.95;;
30133;SDS011;16946;49.984;10.672;2023-09-18T02:46:08;6.07;;;4.80;;
30133;SDS011;16946;49.984;10.672;2023-09-18T02:46:39;7.43;;;4.47;;
30133;SDS011;16946;49.984;10.672;2023-09-18T02:47:10;5.65;;;5.00;;
30133;SDS011;16946;49.984;10.672;2023-09-18T02:47:40;5.03;;;4.53;;
30133;SDS011;16946;49.984;10.672;2023-09-18T02:48:12;6.82;;;5.20;;
30133;SDS011;16946;49.984;10.672;2023-09-18T02:48:42;6.97;;;5.30;;
30133;SDS011;16946;49.984;10.672;2023-09-18T02:49:13;4.70;;;4.30;;
30133;SDS011;16946;49.984;10.672;2023-09-18T02:49:43;5.93;;;5.03;;
30133;SDS011;16946;49.984;10.672;2023-09-18T02:50:14;5.67;;;4.70;;
30133;SDS011;16946;49.984;10.672;2023-09-18T02:50:45;5.70;;;5.13;;
30133;SDS011;16946;49.984;10.672;2023-09-18T02:51:15;5.38;;;4.88;;
30133;SDS011;16946;49.984;10.672;2023-09-18T02:51:46;6.77;;;5.70;;
30133;SDS011;16946;49.984;10.672;2023-09-18T02:52:17;5.03;;;4.53;;
30133;SDS011;16946;49.984;10.672;2023-09-18T02:52:47;5.03;;;4.63;;
30133;SDS011;16946;49.984;10.672;2023-09-18T02:53:20;5.40;;;5.00;;
30133;SDS011;16946;49.984;10.672;2023-09-18T02:53:52;5.47;;;4.72;;
30133;SDS011;16946;49.984;10.672;2023-09-18T02:54:22;7.03;;;4.43;;
30133;SDS011;16946;49.984;10.672;2023-09-18T02:54:53;5.83;;;4.70;;
30133;SDS011;16946;49.984;10.672;2023-09-18T02:55:23;6.57;;;5.00;;
30133;SDS011;16946;49.984;10.672;2023-09-18T02:55:54;6.63;;;5.43;;
30133;SDS011;16946;49.984;10.672;2023-09-18T02:56:26;6.20;;;5.22;;
30133;SDS011;16946;49.984;10.672;2023-09-18T02:56:56;5.97;;;5.10;;
30133;SDS011;16946;49.984;10.672;2023-09-18T02:57:27;5.97;;;5.37;;
30133;SDS011;16946;49.984;10.672;2023-09-18T02:57:57;6.20;;;5.27;;
30133;SDS011;16946;49.984;10.672;2023-09-18T02:58:29;5.60;;;5.03;;
30133;SDS011;16946;49.984;10.672;2023-09-18T02:59:00;5.93;;;5.07;;
30133;SDS011;16946;49.984;10.672;2023-09-18T02:59:30;5.50;;;5.00;;
30133;SDS011;16946;49.984;10.672;2023-09-18T03:00:02;5.32;;;4.82;;
30133;SDS011;16946;49.984;10.672;2023-09-18T03:00:33;5.35;;;4.85;;
30133;SDS011;16946;49.984;10.672;2023-09-18T03:01:03;6.23;;;4.93;;
30133;SDS011;16946;49.984;10.672;2023-09-18T03:01:36;5.97;;;5.45;;
30133;SDS011;16946;49.984;10.672;2023-09-18T03:02:07;5.70;;;5.20;;
30133;SDS011;16946;49.984;10.672;2023-09-18T03:02:37;7.00;;;6.40;;
30133;SDS011;16946;49.984;10.672;2023-09-18T03:03:08;6.07;;;5.40;;
30133;SDS011;16946;49.984;10.672;2023-09-18T03:03:38;6.40;;;5.57;;
30133;SDS011;16946;49.984;10.672;2023-09-18T03:04:11;7.68;;;5.50;;
30133;SDS011;16946;49.984;10.672;2023-09-18T03:04:42;6.67;;;6.07;;
30133;SDS011;16946;49.984;10.672;2023-09-18T03:05:12;6.40;;;5.77;;
30133;SDS011;16946;49.984;10.672;2023-09-18T03:05:43;7.57;;;6.43;;
30133;SDS011;16946;49.984;10.672;2023-09-18T03:06:14;6.65;;;6.07;;
30133;SDS011;16946;49.984;10.672;2023-09-18T03:06:45;7.80;;;7.10;;
30133;SDS011;16946;49.984;10.672;2023-09-18T03:07:15;7.37;;;6.40;;
30133;SDS011;16946;49.984;10.672;2023-09-18T03:07:46;6.53;;;5.93;;
30133;SDS011;16946;49.984;10.672;2023-09-18T03:08:18;9.30;;;6.72;;